Terminal Aerodrome Forecast
Issued by NWS Tuscon, AZ

Home | Current Version | Previous Version | Text Only | Print | Product List | Glossary On
Versions: 1 2 3 4 5 6 7 8 9 10 11 12 13 14 15 16
000
FTUS45 KTWC 230539
TAFDUG
TAF
KDUG 230539Z 2306/2406 15011KT P6SM SKC
     FM231600 18012G22KT P6SM BKN090
     FM232000 23020G30KT P6SM BKN050 OVC080
     FM240300 22025G35KT P6SM VCSH SCT030 OVC040=

USA.gov is the U.S. government's official web portal to all federal, state and local government web resources and services.